Lagoa, Portugal
Current Conditions -  °F | °C
As of 3:30 AM on Friday 31 Oct 2014 (Local Time) from LPFR Reporting Station
Clear Clear  
Wind Chill: 68°   Ceiling: Unl
Heat Index: 68°   Visibility: 6mi
Dew Point: 52°   Wind: 10mph
Humidity: 56%   Direction: 80°E
Pressure: 30.03"   Gusts: NA
Location:  37.14°N, 8.45°W
Report Text: LPFR 310430Z 08009KT CAVOK 20/11 Q1017
Loading
Personal Weather Stations






























Interactive Weather Map
Tropical Storm Tracking
New forecast layout! Learn more

10-Day Weather Forecast

Advertisements
Track Severe Weather on mobile